sensor_id;sensor_type;location;lat;lon;timestamp;pressure;altitude;pressure_sealevel;temperature;humidity
5413;BME280;2729;50.056;8.678;2023-06-26T00:01:41;100130.00;;;21.56;100.00
5413;BME280;2729;50.056;8.678;2023-06-26T00:04:08;100136.16;;;21.57;100.00
5413;BME280;2729;50.056;8.678;2023-06-26T00:06:38;100136.59;;;21.50;100.00
5413;BME280;2729;50.056;8.678;2023-06-26T00:09:04;100127.63;;;21.64;100.00
5413;BME280;2729;50.056;8.678;2023-06-26T00:11:30;100135.50;;;21.66;100.00
5413;BME280;2729;50.056;8.678;2023-06-26T00:13:59;100128.94;;;21.59;100.00
5413;BME280;2729;50.056;8.678;2023-06-26T00:16:26;100121.88;;;21.34;100.00
5413;BME280;2729;50.056;8.678;2023-06-26T00:18:52;100124.44;;;21.35;100.00
5413;BME280;2729;50.056;8.678;2023-06-26T00:21:18;100120.06;;;21.34;100.00
5413;BME280;2729;50.056;8.678;2023-06-26T00:23:45;100127.28;;;21.45;100.00
5413;BME280;2729;50.056;8.678;2023-06-26T00:26:11;100122.50;;;21.37;100.00
5413;BME280;2729;50.056;8.678;2023-06-26T00:28:37;100125.78;;;21.41;100.00
5413;BME280;2729;50.056;8.678;2023-06-26T00:31:03;100116.47;;;21.35;100.00
5413;BME280;2729;50.056;8.678;2023-06-26T00:33:28;100120.06;;;21.34;100.00
5413;BME280;2729;50.056;8.678;2023-06-26T00:35:56;100121.16;;;21.19;100.00
5413;BME280;2729;50.056;8.678;2023-06-26T00:38:22;100115.53;;;21.11;100.00
5413;BME280;2729;50.056;8.678;2023-06-26T00:40:48;100117.44;;;21.09;100.00
5413;BME280;2729;50.056;8.678;2023-06-26T00:43:14;100118.19;;;21.11;100.00
5413;BME280;2729;50.056;8.678;2023-06-26T00:45:41;100120.84;;;21.11;100.00
5413;BME280;2729;50.056;8.678;2023-06-26T00:48:06;100122.31;;;21.15;100.00
5413;BME280;2729;50.056;8.678;2023-06-26T00:50:32;100122.72;;;21.22;100.00
5413;BME280;2729;50.056;8.678;2023-06-26T00:52:58;100130.09;;;21.05;100.00
5413;BME280;2729;50.056;8.678;2023-06-26T00:55:29;100125.63;;;21.06;100.00
5413;BME280;2729;50.056;8.678;2023-06-26T00:57:55;100124.16;;;20.89;100.00
5413;BME280;2729;50.056;8.678;2023-06-26T01:00:20;100117.47;;;20.83;100.00
5413;BME280;2729;50.056;8.678;2023-06-26T01:02:46;100119.69;;;20.77;100.00
5413;BME280;2729;50.056;8.678;2023-06-26T01:05:12;100121.06;;;20.70;100.00
5413;BME280;2729;50.056;8.678;2023-06-26T01:07:38;100118.53;;;20.81;100.00
5413;BME280;2729;50.056;8.678;2023-06-26T01:10:05;100109.75;;;20.80;100.00
5413;BME280;2729;50.056;8.678;2023-06-26T01:12:34;100109.19;;;20.75;100.00
5413;BME280;2729;50.056;8.678;2023-06-26T01:15:01;100105.03;;;20.71;100.00
5413;BME280;2729;50.056;8.678;2023-06-26T01:17:27;100103.56;;;20.42;100.00
5413;BME280;2729;50.056;8.678;2023-06-26T01:19:58;100103.66;;;20.53;100.00
5413;BME280;2729;50.056;8.678;2023-06-26T01:25:04;100102.59;;;20.68;100.00
5413;BME280;2729;50.056;8.678;2023-06-26T01:27:33;100099.00;;;20.69;100.00
5413;BME280;2729;50.056;8.678;2023-06-26T01:30:00;100095.81;;;20.64;100.00
5413;BME280;2729;50.056;8.678;2023-06-26T01:32:28;100100.06;;;20.54;100.00
5413;BME280;2729;50.056;8.678;2023-06-26T01:34:54;100093.47;;;20.47;100.00
5413;BME280;2729;50.056;8.678;2023-06-26T01:37:20;100093.59;;;20.45;100.00
5413;BME280;2729;50.056;8.678;2023-06-26T01:39:46;100085.53;;;20.47;100.00
5413;BME280;2729;50.056;8.678;2023-06-26T01:42:11;100091.25;;;20.41;100.00
5413;BME280;2729;50.056;8.678;2023-06-26T01:44:39;100088.00;;;20.23;100.00
5413;BME280;2729;50.056;8.678;2023-06-26T01:47:06;100092.88;;;20.16;100.00
5413;BME280;2729;50.056;8.678;2023-06-26T01:52:07;100086.00;;;20.14;100.00
5413;BME280;2729;50.056;8.678;2023-06-26T01:54:37;100092.78;;;20.18;100.00
5413;BME280;2729;50.056;8.678;2023-06-26T01:57:04;100093.19;;;20.12;100.00
5413;BME280;2729;50.056;8.678;2023-06-26T01:59:31;100086.50;;;20.06;100.00
5413;BME280;2729;50.056;8.678;2023-06-26T02:01:58;100085.03;;;20.15;100.00
5413;BME280;2729;50.056;8.678;2023-06-26T02:04:23;100073.59;;;20.14;100.00
5413;BME280;2729;50.056;8.678;2023-06-26T02:06:49;100078.75;;;20.03;100.00
5413;BME280;2729;50.056;8.678;2023-06-26T02:09:15;100074.31;;;20.04;100.00
5413;BME280;2729;50.056;8.678;2023-06-26T02:11:41;100076.84;;;20.05;100.00
5413;BME280;2729;50.056;8.678;2023-06-26T02:14:06;100081.63;;;20.00;100.00
5413;BME280;2729;50.056;8.678;2023-06-26T02:16:34;100085.00;;;20.02;100.00
5413;BME280;2729;50.056;8.678;2023-06-26T02:19:00;100088.06;;;19.96;100.00
5413;BME280;2729;50.056;8.678;2023-06-26T02:21:26;100089.47;;;20.02;100.00
5413;BME280;2729;50.056;8.678;2023-06-26T02:23:53;100086.56;;;19.92;100.00
5413;BME280;2729;50.056;8.678;2023-06-26T02:26:19;100084.47;;;19.97;100.00
5413;BME280;2729;50.056;8.678;2023-06-26T02:28:46;100084.22;;;19.87;100.00
5413;BME280;2729;50.056;8.678;2023-06-26T02:31:12;100085.50;;;19.82;100.00
5413;BME280;2729;50.056;8.678;2023-06-26T02:33:37;100083.16;;;19.77;100.00
5413;BME280;2729;50.056;8.678;2023-06-26T02:36:04;100084.28;;;19.73;100.00
5413;BME280;2729;50.056;8.678;2023-06-26T02:38:30;100083.03;;;19.79;100.00
5413;BME280;2729;50.056;8.678;2023-06-26T02:40:55;100084.06;;;19.64;100.00
5413;BME280;2729;50.056;8.678;2023-06-26T02:43:21;100089.09;;;19.54;100.00
5413;BME280;2729;50.056;8.678;2023-06-26T02:45:47;100083.41;;;19.60;100.00
5413;BME280;2729;50.056;8.678;2023-06-26T02:48:13;100084.44;;;19.57;100.00
5413;BME280;2729;50.056;8.678;2023-06-26T02:50:40;100088.53;;;19.76;100.00
5413;BME280;2729;50.056;8.678;2023-06-26T02:53:10;100087.25;;;19.69;100.00
5413;BME280;2729;50.056;8.678;2023-06-26T02:55:39;100088.00;;;19.71;100.00
5413;BME280;2729;50.056;8.678;2023-06-26T02:58:05;100083.50;;;19.58;100.00
5413;BME280;2729;50.056;8.678;2023-06-26T03:00:32;100080.19;;;19.82;100.00
5413;BME280;2729;50.056;8.678;2023-06-26T03:03:00;100082.06;;;19.67;100.00
5413;BME280;2729;50.056;8.678;2023-06-26T03:05:26;100079.69;;;19.63;100.00
5413;BME280;2729;50.056;8.678;2023-06-26T03:07:52;100075.97;;;19.52;100.00
5413;BME280;2729;50.056;8.678;2023-06-26T03:10:18;100081.66;;;19.32;100.00
5413;BME280;2729;50.056;8.678;2023-06-26T03:12:44;62750.50;;;-142.56;100.00
5413;BME280;2729;50.056;8.678;2023-06-26T03:15:10;100177.78;;;25.94;100.00
5413;BME280;2729;50.056;8.678;2023-06-26T03:17:37;100203.38;;;23.79;100.00
5413;BME280;2729;50.056;8.678;2023-06-26T03:20:07;100223.06;;;24.10;100.00
5413;BME280;2729;50.056;8.678;2023-06-26T03:22:52;100223.06;;;24.10;100.00
5413;BME280;2729;50.056;8.678;2023-06-26T03:25:19;62750.50;;;-142.56;100.00
5413;BME280;2729;50.056;8.678;2023-06-26T03:28:41;62750.50;;;-142.56;100.00
5413;BME280;2729;50.056;8.678;2023-06-26T03:31:15;62750.50;;;-142.56;100.00
5413;BME280;2729;50.056;8.678;2023-06-26T03:34:32;62750.50;;;-142.56;100.00
5413;BME280;2729;50.056;8.678;2023-06-26T03:36:58;100200.97;;;27.19;100.00
5413;BME280;2729;50.056;8.678;2023-06-26T03:39:24;62750.50;;;-142.56;100.00
5413;BME280;2729;50.056;8.678;2023-06-26T03:41:50;100195.25;;;24.55;100.00
5413;BME280;2729;50.056;8.678;2023-06-26T03:44:16;100195.97;;;23.15;100.00
5413;BME280;2729;50.056;8.678;2023-06-26T03:46:46;100198.72;;;24.88;100.00
5413;BME280;2729;50.056;8.678;2023-06-26T03:49:12;100198.72;;;-142.56;100.00
5413;BME280;2729;50.056;8.678;2023-06-26T03:51:38;62750.50;;;-142.56;100.00
5413;BME280;2729;50.056;8.678;2023-06-26T03:54:03;62750.50;;;-142.56;100.00
5413;BME280;2729;50.056;8.678;2023-06-26T03:56:29;100166.16;;;24.20;100.00
5413;BME280;2729;50.056;8.678;2023-06-26T03:58:55;100162.75;;;26.22;100.00
5413;BME280;2729;50.056;8.678;2023-06-26T04:01:21;100153.38;;;23.15;100.00
5413;BME280;2729;50.056;8.678;2023-06-26T04:03:48;100147.25;;;21.98;100.00
5413;BME280;2729;50.056;8.678;2023-06-26T04:06:14;100141.13;;;21.61;100.00
5413;BME280;2729;50.056;8.678;2023-06-26T04:08:40;100148.25;;;21.61;100.00
5413;BME280;2729;50.056;8.678;2023-06-26T04:11:05;100148.03;;;20.89;100.00
5413;BME280;2729;50.056;8.678;2023-06-26T04:13:32;100158.75;;;21.26;100.00
5413;BME280;2729;50.056;8.678;2023-06-26T04:15:57;100150.25;;;21.33;100.00
5413;BME280;2729;50.056;8.678;2023-06-26T04:18:23;100151.66;;;21.01;100.00
5413;BME280;2729;50.056;8.678;2023-06-26T04:21:08;100158.13;;;20.97;100.00
5413;BME280;2729;50.056;8.678;2023-06-26T04:23:34;100155.97;;;20.76;100.00
5413;BME280;2729;50.056;8.678;2023-06-26T04:26:00;100156.31;;;20.84;100.00
5413;BME280;2729;50.056;8.678;2023-06-26T04:28:28;100144.75;;;20.85;100.00
5413;BME280;2729;50.056;8.678;2023-06-26T04:30:54;100142.91;;;21.37;100.00
5413;BME280;2729;50.056;8.678;2023-06-26T04:33:19;100132.63;;;21.19;100.00
5413;BME280;2729;50.056;8.678;2023-06-26T04:35:45;100127.34;;;21.56;100.00
5413;BME280;2729;50.056;8.678;2023-06-26T04:38:17;100133.91;;;21.14;100.00
5413;BME280;2729;50.056;8.678;2023-06-26T04:40:42;100130.91;;;21.68;100.00
5413;BME280;2729;50.056;8.678;2023-06-26T04:43:08;100124.88;;;21.29;100.00
5413;BME280;2729;50.056;8.678;2023-06-26T04:45:34;100123.03;;;21.42;100.00
5413;BME280;2729;50.056;8.678;2023-06-26T04:48:00;100130.66;;;21.47;100.00
5413;BME280;2729;50.056;8.678;2023-06-26T04:50:26;100129.44;;;21.27;100.00
5413;BME280;2729;50.056;8.678;2023-06-26T04:52:53;100127.56;;;19.86;100.00
5413;BME280;2729;50.056;8.678;2023-06-26T04:55:19;100137.41;;;19.43;100.00
5413;BME280;2729;50.056;8.678;2023-06-26T04:57:47;100142.91;;;19.54;100.00
5413;BME280;2729;50.056;8.678;2023-06-26T05:00:13;100149.66;;;19.03;100.00
5413;BME280;2729;50.056;8.678;2023-06-26T05:02:39;100138.19;;;19.17;100.00
5413;BME280;2729;50.056;8.678;2023-06-26T05:05:04;100146.75;;;19.63;100.00
5413;BME280;2729;50.056;8.678;2023-06-26T05:07:30;100145.72;;;19.66;100.00
5413;BME280;2729;50.056;8.678;2023-06-26T05:09:56;100138.72;;;19.65;100.00
5413;BME280;2729;50.056;8.678;2023-06-26T05:12:22;100143.50;;;19.72;100.00
5413;BME280;2729;50.056;8.678;2023-06-26T05:14:47;100142.09;;;19.94;100.00
5413;BME280;2729;50.056;8.678;2023-06-26T05:17:14;100149.97;;;19.95;100.00
5413;BME280;2729;50.056;8.678;2023-06-26T05:19:39;100145.59;;;19.94;100.00
5413;BME280;2729;50.056;8.678;2023-06-26T05:22:05;100150.09;;;19.79;100.00
5413;BME280;2729;50.056;8.678;2023-06-26T05:24:36;100148.00;;;19.57;100.00
5413;BME280;2729;50.056;8.678;2023-06-26T05:27:02;100153.34;;;19.97;100.00
5413;BME280;2729;50.056;8.678;2023-06-26T05:29:31;100150.91;;;19.94;100.00
5413;BME280;2729;50.056;8.678;2023-06-26T05:31:58;100141.06;;;19.69;100.00
5413;BME280;2729;50.056;8.678;2023-06-26T05:34:24;100150.75;;;19.56;100.00
5413;BME280;2729;50.056;8.678;2023-06-26T05:36:50;100146.47;;;19.95;100.00
5413;BME280;2729;50.056;8.678;2023-06-26T05:39:16;100150.81;;;19.69;100.00
5413;BME280;2729;50.056;8.678;2023-06-26T05:41:43;100145.69;;;20.19;100.00
5413;BME280;2729;50.056;8.678;2023-06-26T05:44:09;100162.53;;;20.58;100.00
5413;BME280;2729;50.056;8.678;2023-06-26T05:46:35;100157.84;;;19.82;100.00
5413;BME280;2729;50.056;8.678;2023-06-26T05:49:00;100149.00;;;19.96;100.00
5413;BME280;2729;50.056;8.678;2023-06-26T05:51:27;100152.66;;;20.47;100.00
5413;BME280;2729;50.056;8.678;2023-06-26T05:53:53;100155.53;;;20.17;100.00
5413;BME280;2729;50.056;8.678;2023-06-26T05:56:18;100150.00;;;19.81;100.00
5413;BME280;2729;50.056;8.678;2023-06-26T05:58:44;100142.41;;;19.89;100.00
5413;BME280;2729;50.056;8.678;2023-06-26T06:01:10;100142.09;;;19.94;100.00
5413;BME280;2729;50.056;8.678;2023-06-26T06:03:36;100150.16;;;19.92;100.00
5413;BME280;2729;50.056;8.678;2023-06-26T06:06:03;100153.41;;;20.62;100.00
5413;BME280;2729;50.056;8.678;2023-06-26T06:08:29;100155.09;;;20.50;100.00
5413;BME280;2729;50.056;8.678;2023-06-26T06:10:54;100153.84;;;21.19;100.00
5413;BME280;2729;50.056;8.678;2023-06-26T06:13:20;100145.00;;;21.44;100.00
5413;BME280;2729;50.056;8.678;2023-06-26T06:15:46;100136.53;;;21.39;100.00
5413;BME280;2729;50.056;8.678;2023-06-26T06:18:12;100131.09;;;21.41;100.00
5413;BME280;2729;50.056;8.678;2023-06-26T06:20:37;100129.56;;;21.26;100.00
5413;BME280;2729;50.056;8.678;2023-06-26T06:23:03;100139.28;;;21.74;100.00
5413;BME280;2729;50.056;8.678;2023-06-26T06:25:29;100133.69;;;21.90;100.00
5413;BME280;2729;50.056;8.678;2023-06-26T06:27:55;100132.78;;;22.26;100.00
5413;BME280;2729;50.056;8.678;2023-06-26T06:30:20;100121.34;;;21.89;100.00
5413;BME280;2729;50.056;8.678;2023-06-26T06:32:46;100117.78;;;22.25;100.00
5413;BME280;2729;50.056;8.678;2023-06-26T06:35:17;100117.56;;;22.86;100.00
5413;BME280;2729;50.056;8.678;2023-06-26T06:37:42;100109.81;;;22.83;100.00
5413;BME280;2729;50.056;8.678;2023-06-26T06:40:08;100098.69;;;22.89;100.00
5413;BME280;2729;50.056;8.678;2023-06-26T06:42:34;100093.59;;;22.97;100.00
5413;BME280;2729;50.056;8.678;2023-06-26T06:45:04;100099.25;;;23.48;100.00
5413;BME280;2729;50.056;8.678;2023-06-26T06:47:33;100098.03;;;23.95;100.00
5413;BME280;2729;50.056;8.678;2023-06-26T06:49:59;100088.47;;;23.93;100.00
5413;BME280;2729;50.056;8.678;2023-06-26T06:52:29;100091.34;;;24.01;100.00
5413;BME280;2729;50.056;8.678;2023-06-26T06:54:55;100085.25;;;23.78;100.00
5413;BME280;2729;50.056;8.678;2023-06-26T06:57:24;100085.09;;;24.12;100.00
5413;BME280;2729;50.056;8.678;2023-06-26T06:59:50;100084.56;;;23.97;100.00
5413;BME280;2729;50.056;8.678;2023-06-26T07:02:17;100081.59;;;24.11;100.00
5413;BME280;2729;50.056;8.678;2023-06-26T07:04:42;100072.84;;;24.41;100.00
5413;BME280;2729;50.056;8.678;2023-06-26T07:07:08;100082.81;;;24.69;100.00
5413;BME280;2729;50.056;8.678;2023-06-26T07:09:35;100089.41;;;24.96;100.00
5413;BME280;2729;50.056;8.678;2023-06-26T07:12:01;100087.13;;;25.22;100.00
5413;BME280;2729;50.056;8.678;2023-06-26T07:14:28;100081.66;;;25.33;100.00
5413;BME280;2729;50.056;8.678;2023-06-26T07:16:53;100075.44;;;25.13;100.00
5413;BME280;2729;50.056;8.678;2023-06-26T07:19:19;100080.84;;;25.42;100.00
5413;BME280;2729;50.056;8.678;2023-06-26T07:21:45;100081.81;;;25.31;100.00
5413;BME280;2729;50.056;8.678;2023-06-26T07:24:11;100086.34;;;25.60;100.00
5413;BME280;2729;50.056;8.678;2023-06-26T07:26:37;100081.56;;;25.54;100.00
5413;BME280;2729;50.056;8.678;2023-06-26T07:29:03;100080.59;;;25.64;100.00
5413;BME280;2729;50.056;8.678;2023-06-26T07:31:29;100081.91;;;25.89;100.00
5413;BME280;2729;50.056;8.678;2023-06-26T07:33:55;100087.38;;;25.78;100.00
5413;BME280;2729;50.056;8.678;2023-06-26T07:36:21;100084.00;;;25.76;100.00
5413;BME280;2729;50.056;8.678;2023-06-26T07:38:46;100090.97;;;25.48;100.00
5413;BME280;2729;50.056;8.678;2023-06-26T07:41:12;100084.16;;;25.65;100.00
5413;BME280;2729;50.056;8.678;2023-06-26T07:43:38;100085.94;;;25.55;100.00
5413;BME280;2729;50.056;8.678;2023-06-26T07:46:04;100088.25;;;25.79;100.00
5413;BME280;2729;50.056;8.678;2023-06-26T07:48:29;100082.59;;;25.82;100.00
5413;BME280;2729;50.056;8.678;2023-06-26T07:50:55;100086.97;;;25.83;100.00
5413;BME280;2729;50.056;8.678;2023-06-26T07:53:21;100085.41;;;25.80;100.00
5413;BME280;2729;50.056;8.678;2023-06-26T07:55:47;100085.41;;;25.80;100.00
5413;BME280;2729;50.056;8.678;2023-06-26T07:58:12;100080.66;;;26.13;100.00
5413;BME280;2729;50.056;8.678;2023-06-26T08:00:38;100074.19;;;26.06;100.00
5413;BME280;2729;50.056;8.678;2023-06-26T08:03:04;100080.91;;;26.00;100.00
5413;BME280;2729;50.056;8.678;2023-06-26T08:05:30;100078.41;;;26.37;97.09
5413;BME280;2729;50.056;8.678;2023-06-26T08:07:55;100076.97;;;26.23;100.00
5413;BME280;2729;50.056;8.678;2023-06-26T08:10:21;100069.06;;;26.32;100.00
5413;BME280;2729;50.056;8.678;2023-06-26T08:12:47;100074.38;;;26.61;100.00
5413;BME280;2729;50.056;8.678;2023-06-26T08:15:14;100072.13;;;26.66;100.00
5413;BME280;2729;50.056;8.678;2023-06-26T08:17:40;100068.56;;;26.75;100.00
5413;BME280;2729;50.056;8.678;2023-06-26T08:20:05;100076.31;;;26.78;100.00
5413;BME280;2729;50.056;8.678;2023-06-26T08:22:33;100072.84;;;26.95;100.00
5413;BME280;2729;50.056;8.678;2023-06-26T08:24:59;100069.91;;;26.98;99.13
5413;BME280;2729;50.056;8.678;2023-06-26T08:27:25;100073.16;;;27.19;98.17
5413;BME280;2729;50.056;8.678;2023-06-26T08:29:51;100066.22;;;26.99;100.00
5413;BME280;2729;50.056;8.678;2023-06-26T08:32:16;100064.78;;;27.05;100.00
5413;BME280;2729;50.056;8.678;2023-06-26T08:34:42;100072.28;;;27.01;99.03
5413;BME280;2729;50.056;8.678;2023-06-26T08:37:08;100070.97;;;27.60;76.59
5413;BME280;2729;50.056;8.678;2023-06-26T08:39:37;100069.38;;;27.40;92.44
5413;BME280;2729;50.056;8.678;2023-06-26T08:42:02;100067.72;;;27.57;96.12
5413;BME280;2729;50.056;8.678;2023-06-26T08:44:28;100087.91;;;27.33;83.37
5413;BME280;2729;50.056;8.678;2023-06-26T08:46:54;100086.59;;;27.65;74.68
5413;BME280;2729;50.056;8.678;2023-06-26T08:49:20;100081.81;;;27.59;84.61
5413;BME280;2729;50.056;8.678;2023-06-26T08:51:57;100081.47;;;27.71;91.22
5413;BME280;2729;50.056;8.678;2023-06-26T08:54:28;100089.97;;;27.67;81.36
5413;BME280;2729;50.056;8.678;2023-06-26T08:56:56;100078.16;;;27.77;79.32
5413;BME280;2729;50.056;8.678;2023-06-26T08:59:23;100076.88;;;27.64;87.24
5413;BME280;2729;50.056;8.678;2023-06-26T09:01:49;100084.22;;;27.79;95.14
5413;BME280;2729;50.056;8.678;2023-06-26T09:04:15;100079.97;;;27.59;85.00
5413;BME280;2729;50.056;8.678;2023-06-26T09:06:41;100080.41;;;27.64;80.89
5413;BME280;2729;50.056;8.678;2023-06-26T09:09:07;100080.38;;;28.00;69.25
5413;BME280;2729;50.056;8.678;2023-06-26T09:11:33;100081.19;;;28.36;71.03
5413;BME280;2729;50.056;8.678;2023-06-26T09:13:59;100087.47;;;28.44;65.53
5413;BME280;2729;50.056;8.678;2023-06-26T09:16:25;100081.28;;;28.26;73.92
5413;BME280;2729;50.056;8.678;2023-06-26T09:18:55;100077.22;;;28.22;84.51
5413;BME280;2729;50.056;8.678;2023-06-26T09:21:21;100077.94;;;27.89;82.94
5413;BME280;2729;50.056;8.678;2023-06-26T09:23:48;100076.09;;;28.25;70.70
5413;BME280;2729;50.056;8.678;2023-06-26T09:26:14;100075.78;;;28.28;72.54
5413;BME280;2729;50.056;8.678;2023-06-26T09:28:41;100078.59;;;28.26;74.82
5413;BME280;2729;50.056;8.678;2023-06-26T09:31:07;100075.97;;;28.34;77.04
5413;BME280;2729;50.056;8.678;2023-06-26T09:33:36;100076.53;;;28.64;68.41
5413;BME280;2729;50.056;8.678;2023-06-26T09:36:09;100075.44;;;28.74;63.96
5413;BME280;2729;50.056;8.678;2023-06-26T09:38:43;100077.22;;;28.66;66.63
5413;BME280;2729;50.056;8.678;2023-06-26T09:41:09;100081.81;;;28.73;73.14
5413;BME280;2729;50.056;8.678;2023-06-26T09:43:35;100080.06;;;28.64;69.55
5413;BME280;2729;50.056;8.678;2023-06-26T09:46:14;100078.19;;;29.25;62.72
5413;BME280;2729;50.056;8.678;2023-06-26T09:48:40;100081.53;;;29.19;67.75
5413;BME280;2729;50.056;8.678;2023-06-26T09:51:06;100087.03;;;29.43;62.09
5413;BME280;2729;50.056;8.678;2023-06-26T09:53:32;100086.06;;;29.60;60.83
5413;BME280;2729;50.056;8.678;2023-06-26T09:56:04;100075.09;;;29.03;64.96
5413;BME280;2729;50.056;8.678;2023-06-26T09:58:30;100082.56;;;29.26;67.54
5413;BME280;2729;50.056;8.678;2023-06-26T10:00:56;100088.09;;;29.24;60.26
5413;BME280;2729;50.056;8.678;2023-06-26T10:03:22;100085.53;;;29.49;62.90
5413;BME280;2729;50.056;8.678;2023-06-26T10:05:48;100087.41;;;29.72;66.83
5413;BME280;2729;50.056;8.678;2023-06-26T10:08:14;100083.09;;;29.29;65.70
5413;BME280;2729;50.056;8.678;2023-06-26T10:10:40;100091.09;;;29.55;62.94
5413;BME280;2729;50.056;8.678;2023-06-26T10:13:08;100095.53;;;29.38;64.94
5413;BME280;2729;50.056;8.678;2023-06-26T10:15:37;100101.03;;;29.21;65.84
5413;BME280;2729;50.056;8.678;2023-06-26T10:18:03;100106.69;;;29.09;67.38
5413;BME280;2729;50.056;8.678;2023-06-26T10:20:29;100106.34;;;29.04;63.32
5413;BME280;2729;50.056;8.678;2023-06-26T10:22:55;100099.91;;;29.39;65.06
5413;BME280;2729;50.056;8.678;2023-06-26T10:25:23;100108.91;;;29.56;65.42
5413;BME280;2729;50.056;8.678;2023-06-26T10:27:54;100102.91;;;29.95;63.25
5413;BME280;2729;50.056;8.678;2023-06-26T10:30:22;100098.25;;;30.21;60.91
5413;BME280;2729;50.056;8.678;2023-06-26T10:32:49;100102.97;;;31.07;57.46
5413;BME280;2729;50.056;8.678;2023-06-26T10:35:15;100102.44;;;30.40;60.93
5413;BME280;2729;50.056;8.678;2023-06-26T10:37:48;100096.38;;;30.30;61.52
5413;BME280;2729;50.056;8.678;2023-06-26T10:40:21;100091.78;;;30.79;58.16
5413;BME280;2729;50.056;8.678;2023-06-26T10:42:47;100092.41;;;30.89;58.25
5413;BME280;2729;50.056;8.678;2023-06-26T10:45:14;100092.16;;;30.44;61.77
5413;BME280;2729;50.056;8.678;2023-06-26T10:47:41;100080.53;;;30.67;58.28
5413;BME280;2729;50.056;8.678;2023-06-26T10:50:20;100094.69;;;30.61;58.16
5413;BME280;2729;50.056;8.678;2023-06-26T10:55:32;100093.88;;;30.12;60.87
5413;BME280;2729;50.056;8.678;2023-06-26T10:57:57;100094.00;;;30.51;55.94
5413;BME280;2729;50.056;8.678;2023-06-26T11:00:23;100094.34;;;30.48;56.13
5413;BME280;2729;50.056;8.678;2023-06-26T11:02:52;100106.81;;;30.65;58.20
5413;BME280;2729;50.056;8.678;2023-06-26T11:05:28;100103.88;;;30.91;55.23
5413;BME280;2729;50.056;8.678;2023-06-26T11:08:07;100102.19;;;30.90;54.62
5413;BME280;2729;50.056;8.678;2023-06-26T11:10:50;100097.34;;;30.69;59.71
5413;BME280;2729;50.056;8.678;2023-06-26T11:13:17;100100.31;;;30.99;51.30
5413;BME280;2729;50.056;8.678;2023-06-26T11:15:43;100098.00;;;31.35;50.86
5413;BME280;2729;50.056;8.678;2023-06-26T11:18:12;100096.72;;;31.15;54.06
5413;BME280;2729;50.056;8.678;2023-06-26T11:20:38;100098.59;;;31.14;52.40
5413;BME280;2729;50.056;8.678;2023-06-26T11:23:04;100105.81;;;31.14;53.84
5413;BME280;2729;50.056;8.678;2023-06-26T11:25:35;100103.63;;;31.17;53.36
5413;BME280;2729;50.056;8.678;2023-06-26T11:28:02;100103.19;;;31.45;49.58
5413;BME280;2729;50.056;8.678;2023-06-26T11:30:28;100097.88;;;31.12;51.50
5413;BME280;2729;50.056;8.678;2023-06-26T11:33:02;100102.75;;;31.33;49.28
5413;BME280;2729;50.056;8.678;2023-06-26T11:35:27;100111.59;;;31.50;52.36
5413;BME280;2729;50.056;8.678;2023-06-26T11:37:57;100111.81;;;31.40;49.70
5413;BME280;2729;50.056;8.678;2023-06-26T11:40:25;100106.56;;;30.91;50.84
5413;BME280;2729;50.056;8.678;2023-06-26T11:42:53;100111.94;;;30.91;51.81
5413;BME280;2729;50.056;8.678;2023-06-26T11:45:21;100106.13;;;29.98;61.20
5413;BME280;2729;50.056;8.678;2023-06-26T11:47:47;100108.09;;;29.64;62.54
5413;BME280;2729;50.056;8.678;2023-06-26T11:50:14;100112.06;;;31.06;54.33
5413;BME280;2729;50.056;8.678;2023-06-26T11:52:41;100088.97;;;30.24;57.38
5413;BME280;2729;50.056;8.678;2023-06-26T11:55:07;100099.72;;;31.28;54.37
5413;BME280;2729;50.056;8.678;2023-06-26T11:57:32;100105.66;;;31.85;50.77
5413;BME280;2729;50.056;8.678;2023-06-26T11:59:58;100102.44;;;32.50;47.38
5413;BME280;2729;50.056;8.678;2023-06-26T12:02:35;100112.00;;;32.38;47.78
5413;BME280;2729;50.056;8.678;2023-06-26T12:05:01;100119.22;;;31.77;49.05
5413;BME280;2729;50.056;8.678;2023-06-26T12:07:27;100120.78;;;31.63;50.94
5413;BME280;2729;50.056;8.678;2023-06-26T12:09:53;100119.47;;;32.36;46.61
5413;BME280;2729;50.056;8.678;2023-06-26T12:12:19;100112.25;;;32.28;45.50
5413;BME280;2729;50.056;8.678;2023-06-26T12:14:45;100103.81;;;31.55;48.77
5413;BME280;2729;50.056;8.678;2023-06-26T12:17:13;100114.16;;;32.43;47.03
5413;BME280;2729;50.056;8.678;2023-06-26T12:19:43;100112.31;;;32.58;45.79
5413;BME280;2729;50.056;8.678;2023-06-26T12:22:09;100106.34;;;31.01;52.44
5413;BME280;2729;50.056;8.678;2023-06-26T12:24:37;100111.41;;;32.05;47.81
5413;BME280;2729;50.056;8.678;2023-06-26T12:27:07;100112.97;;;31.77;48.60
5413;BME280;2729;50.056;8.678;2023-06-26T12:29:33;100121.41;;;31.43;48.54
5413;BME280;2729;50.056;8.678;2023-06-26T12:31:59;100119.56;;;31.43;49.61
5413;BME280;2729;50.056;8.678;2023-06-26T12:34:30;100113.44;;;31.49;49.97
5413;BME280;2729;50.056;8.678;2023-06-26T12:36:59;100113.56;;;32.10;51.40
5413;BME280;2729;50.056;8.678;2023-06-26T12:39:25;100118.09;;;31.32;49.13
5413;BME280;2729;50.056;8.678;2023-06-26T12:41:53;100120.19;;;30.98;51.59
5413;BME280;2729;50.056;8.678;2023-06-26T12:44:25;100126.78;;;32.05;47.00
5413;BME280;2729;50.056;8.678;2023-06-26T12:46:53;100122.75;;;31.47;48.78
5413;BME280;2729;50.056;8.678;2023-06-26T12:49:19;100125.03;;;31.27;51.07
5413;BME280;2729;50.056;8.678;2023-06-26T12:51:45;100118.19;;;31.47;50.71
5413;BME280;2729;50.056;8.678;2023-06-26T12:54:11;100129.59;;;31.57;50.65
5413;BME280;2729;50.056;8.678;2023-06-26T12:56:37;100126.09;;;30.93;51.32
5413;BME280;2729;50.056;8.678;2023-06-26T12:59:03;100121.06;;;31.46;51.72
5413;BME280;2729;50.056;8.678;2023-06-26T13:01:28;100123.53;;;31.55;50.60
5413;BME280;2729;50.056;8.678;2023-06-26T13:03:54;100121.69;;;31.87;52.01
5413;BME280;2729;50.056;8.678;2023-06-26T13:06:20;100132.59;;;31.71;52.21
5413;BME280;2729;50.056;8.678;2023-06-26T13:08:46;100128.25;;;31.14;52.18
5413;BME280;2729;50.056;8.678;2023-06-26T13:11:12;100141.56;;;31.16;54.76
5413;BME280;2729;50.056;8.678;2023-06-26T13:13:37;100141.97;;;30.80;56.59